sensor_id;sensor_type;location;lat;lon;timestamp;temperature;humidity
22645;DHT22;11489;50.834;6.752;2023-11-19T00:00:16;12.10;97.80
22645;DHT22;11489;50.834;6.752;2023-11-19T00:02:42;12.20;97.80
22645;DHT22;11489;50.834;6.752;2023-11-19T00:05:08;12.20;97.90
22645;DHT22;11489;50.834;6.752;2023-11-19T00:07:38;12.20;98.20
22645;DHT22;11489;50.834;6.752;2023-11-19T00:10:08;12.30;98.00
22645;DHT22;11489;50.834;6.752;2023-11-19T00:12:36;12.40;98.00
22645;DHT22;11489;50.834;6.752;2023-11-19T00:15:02;12.40;98.00
22645;DHT22;11489;50.834;6.752;2023-11-19T00:17:28;12.40;97.90
22645;DHT22;11489;50.834;6.752;2023-11-19T00:19:53;12.50;97.90
22645;DHT22;11489;50.834;6.752;2023-11-19T00:22:19;12.50;97.90
22645;DHT22;11489;50.834;6.752;2023-11-19T00:24:47;12.60;97.90
22645;DHT22;11489;50.834;6.752;2023-11-19T00:27:12;12.60;97.80
22645;DHT22;11489;50.834;6.752;2023-11-19T00:29:38;12.60;97.90
22645;DHT22;11489;50.834;6.752;2023-11-19T00:32:04;12.60;97.90
22645;DHT22;11489;50.834;6.752;2023-11-19T00:34:31;12.70;97.90
22645;DHT22;11489;50.834;6.752;2023-11-19T00:36:56;12.70;97.90
22645;DHT22;11489;50.834;6.752;2023-11-19T00:39:22;12.80;97.90
22645;DHT22;11489;50.834;6.752;2023-11-19T00:41:48;12.80;97.80
22645;DHT22;11489;50.834;6.752;2023-11-19T00:44:13;12.80;97.80
22645;DHT22;11489;50.834;6.752;2023-11-19T00:46:39;12.80;97.80
22645;DHT22;11489;50.834;6.752;2023-11-19T00:49:05;12.90;98.10
22645;DHT22;11489;50.834;6.752;2023-11-19T00:51:31;12.90;97.70
22645;DHT22;11489;50.834;6.752;2023-11-19T00:53:57;12.80;97.70
22645;DHT22;11489;50.834;6.752;2023-11-19T00:56:23;12.80;97.60
22645;DHT22;11489;50.834;6.752;2023-11-19T00:58:49;12.80;97.50
22645;DHT22;11489;50.834;6.752;2023-11-19T01:01:15;12.80;97.50
22645;DHT22;11489;50.834;6.752;2023-11-19T01:03:40;12.80;97.50
22645;DHT22;11489;50.834;6.752;2023-11-19T01:06:06;12.70;97.50
22645;DHT22;11489;50.834;6.752;2023-11-19T01:08:33;12.70;97.40
22645;DHT22;11489;50.834;6.752;2023-11-19T01:11:01;12.70;97.40
22645;DHT22;11489;50.834;6.752;2023-11-19T01:13:27;12.70;97.50
22645;DHT22;11489;50.834;6.752;2023-11-19T01:15:53;12.60;97.80
22645;DHT22;11489;50.834;6.752;2023-11-19T01:18:21;12.60;97.50
22645;DHT22;11489;50.834;6.752;2023-11-19T01:20:47;12.50;97.50
22645;DHT22;11489;50.834;6.752;2023-11-19T01:23:13;12.50;97.70
22645;DHT22;11489;50.834;6.752;2023-11-19T01:25:38;12.50;97.70
22645;DHT22;11489;50.834;6.752;2023-11-19T01:28:04;12.50;97.80
22645;DHT22;11489;50.834;6.752;2023-11-19T01:30:30;12.50;97.90
22645;DHT22;11489;50.834;6.752;2023-11-19T01:32:56;12.50;98.00
22645;DHT22;11489;50.834;6.752;2023-11-19T01:35:21;12.50;98.10
22645;DHT22;11489;50.834;6.752;2023-11-19T01:37:48;12.60;98.20
22645;DHT22;11489;50.834;6.752;2023-11-19T01:40:14;12.60;98.30
22645;DHT22;11489;50.834;6.752;2023-11-19T01:42:40;12.60;98.40
22645;DHT22;11489;50.834;6.752;2023-11-19T01:45:07;12.70;98.50
22645;DHT22;11489;50.834;6.752;2023-11-19T01:47:35;12.80;98.50
22645;DHT22;11489;50.834;6.752;2023-11-19T01:50:03;12.80;98.40
22645;DHT22;11489;50.834;6.752;2023-11-19T01:52:33;12.90;98.40
22645;DHT22;11489;50.834;6.752;2023-11-19T01:55:02;12.90;98.30
22645;DHT22;11489;50.834;6.752;2023-11-19T01:57:28;13.00;98.20
22645;DHT22;11489;50.834;6.752;2023-11-19T01:59:54;13.00;98.20
22645;DHT22;11489;50.834;6.752;2023-11-19T02:02:20;13.10;98.10
22645;DHT22;11489;50.834;6.752;2023-11-19T02:04:49;13.10;98.10
22645;DHT22;11489;50.834;6.752;2023-11-19T02:07:15;13.10;98.00
22645;DHT22;11489;50.834;6.752;2023-11-19T02:09:43;13.20;97.90
22645;DHT22;11489;50.834;6.752;2023-11-19T02:12:10;13.20;97.90
22645;DHT22;11489;50.834;6.752;2023-11-19T02:14:37;13.20;97.80
22645;DHT22;11489;50.834;6.752;2023-11-19T02:17:04;13.20;97.70
22645;DHT22;11489;50.834;6.752;2023-11-19T02:19:29;13.20;97.60
22645;DHT22;11489;50.834;6.752;2023-11-19T02:21:55;13.20;97.50
22645;DHT22;11489;50.834;6.752;2023-11-19T02:24:22;13.30;97.40
22645;DHT22;11489;50.834;6.752;2023-11-19T02:27:23;13.30;97.30
22645;DHT22;11489;50.834;6.752;2023-11-19T02:29:40;13.20;97.20
22645;DHT22;11489;50.834;6.752;2023-11-19T02:32:06;13.20;97.20
22645;DHT22;11489;50.834;6.752;2023-11-19T02:34:34;13.20;97.20
22645;DHT22;11489;50.834;6.752;2023-11-19T02:37:01;13.20;97.20
22645;DHT22;11489;50.834;6.752;2023-11-19T02:39:26;13.10;97.30
22645;DHT22;11489;50.834;6.752;2023-11-19T02:41:52;13.10;97.30
22645;DHT22;11489;50.834;6.752;2023-11-19T02:44:18;13.10;97.30
22645;DHT22;11489;50.834;6.752;2023-11-19T02:46:44;13.10;97.30
22645;DHT22;11489;50.834;6.752;2023-11-19T02:49:09;13.10;97.20
22645;DHT22;11489;50.834;6.752;2023-11-19T02:51:35;13.10;97.10
22645;DHT22;11489;50.834;6.752;2023-11-19T02:54:02;13.10;97.10
22645;DHT22;11489;50.834;6.752;2023-11-19T02:56:29;13.10;97.10
22645;DHT22;11489;50.834;6.752;2023-11-19T02:59:00;13.10;97.00
22645;DHT22;11489;50.834;6.752;2023-11-19T03:01:33;13.00;97.00
22645;DHT22;11489;50.834;6.752;2023-11-19T03:04:01;13.00;96.90
22645;DHT22;11489;50.834;6.752;2023-11-19T03:06:27;13.00;97.00
22645;DHT22;11489;50.834;6.752;2023-11-19T03:08:55;13.00;96.90
22645;DHT22;11489;50.834;6.752;2023-11-19T03:11:20;13.00;97.00
22645;DHT22;11489;50.834;6.752;2023-11-19T03:13:46;13.00;96.90
22645;DHT22;11489;50.834;6.752;2023-11-19T03:16:12;13.00;96.90
22645;DHT22;11489;50.834;6.752;2023-11-19T03:18:39;12.90;96.80
22645;DHT22;11489;50.834;6.752;2023-11-19T03:21:08;12.90;96.80
22645;DHT22;11489;50.834;6.752;2023-11-19T03:23:34;12.90;96.70
22645;DHT22;11489;50.834;6.752;2023-11-19T03:26:00;12.90;96.80
22645;DHT22;11489;50.834;6.752;2023-11-19T03:28:29;12.90;96.80
22645;DHT22;11489;50.834;6.752;2023-11-19T03:30:55;12.90;96.80
22645;DHT22;11489;50.834;6.752;2023-11-19T03:33:20;12.80;96.80
22645;DHT22;11489;50.834;6.752;2023-11-19T03:35:46;12.80;96.80
22645;DHT22;11489;50.834;6.752;2023-11-19T03:38:12;12.80;96.70
22645;DHT22;11489;50.834;6.752;2023-11-19T03:40:38;12.80;96.70
22645;DHT22;11489;50.834;6.752;2023-11-19T03:43:04;12.80;96.70
22645;DHT22;11489;50.834;6.752;2023-11-19T03:45:30;12.80;96.70
22645;DHT22;11489;50.834;6.752;2023-11-19T03:47:56;12.80;96.70
22645;DHT22;11489;50.834;6.752;2023-11-19T03:50:22;12.70;96.80
22645;DHT22;11489;50.834;6.752;2023-11-19T03:52:48;12.70;97.00
22645;DHT22;11489;50.834;6.752;2023-11-19T03:55:13;12.80;97.10
22645;DHT22;11489;50.834;6.752;2023-11-19T03:57:39;12.80;97.20
22645;DHT22;11489;50.834;6.752;2023-11-19T04:00:05;12.80;97.30
22645;DHT22;11489;50.834;6.752;2023-11-19T04:02:40;12.90;97.30
22645;DHT22;11489;50.834;6.752;2023-11-19T04:05:07;12.90;97.30
22645;DHT22;11489;50.834;6.752;2023-11-19T04:07:33;12.90;97.60
22645;DHT22;11489;50.834;6.752;2023-11-19T04:09:59;13.00;97.30
22645;DHT22;11489;50.834;6.752;2023-11-19T04:12:25;13.00;97.20
22645;DHT22;11489;50.834;6.752;2023-11-19T04:14:50;13.00;97.20
22645;DHT22;11489;50.834;6.752;2023-11-19T04:17:16;13.00;97.20
22645;DHT22;11489;50.834;6.752;2023-11-19T04:19:41;13.00;97.30
22645;DHT22;11489;50.834;6.752;2023-11-19T04:22:09;13.10;97.40
22645;DHT22;11489;50.834;6.752;2023-11-19T04:24:35;13.10;97.40
22645;DHT22;11489;50.834;6.752;2023-11-19T04:27:01;13.10;97.40
22645;DHT22;11489;50.834;6.752;2023-11-19T04:29:26;13.10;97.40
22645;DHT22;11489;50.834;6.752;2023-11-19T04:31:52;13.10;97.40
22645;DHT22;11489;50.834;6.752;2023-11-19T04:34:17;13.20;97.20
22645;DHT22;11489;50.834;6.752;2023-11-19T04:36:43;13.10;97.10
22645;DHT22;11489;50.834;6.752;2023-11-19T04:39:09;13.10;97.00
22645;DHT22;11489;50.834;6.752;2023-11-19T04:41:45;13.10;96.90
22645;DHT22;11489;50.834;6.752;2023-11-19T04:44:12;13.10;96.50
22645;DHT22;11489;50.834;6.752;2023-11-19T04:46:37;13.00;96.70
22645;DHT22;11489;50.834;6.752;2023-11-19T04:49:03;13.00;96.60
22645;DHT22;11489;50.834;6.752;2023-11-19T04:51:30;12.90;96.50
22645;DHT22;11489;50.834;6.752;2023-11-19T04:53:55;12.90;96.50
22645;DHT22;11489;50.834;6.752;2023-11-19T04:56:21;12.90;96.50
22645;DHT22;11489;50.834;6.752;2023-11-19T04:58:48;12.80;96.50
22645;DHT22;11489;50.834;6.752;2023-11-19T05:01:14;12.80;96.50
22645;DHT22;11489;50.834;6.752;2023-11-19T05:03:43;12.70;96.60
22645;DHT22;11489;50.834;6.752;2023-11-19T05:06:09;12.70;96.60
22645;DHT22;11489;50.834;6.752;2023-11-19T05:08:35;12.70;96.60
22645;DHT22;11489;50.834;6.752;2023-11-19T05:11:01;12.70;96.70
22645;DHT22;11489;50.834;6.752;2023-11-19T05:13:26;12.60;96.70
22645;DHT22;11489;50.834;6.752;2023-11-19T05:15:52;12.60;96.60
22645;DHT22;11489;50.834;6.752;2023-11-19T05:18:18;12.60;96.90
22645;DHT22;11489;50.834;6.752;2023-11-19T05:20:45;12.60;96.60
22645;DHT22;11489;50.834;6.752;2023-11-19T05:23:10;12.60;96.70
22645;DHT22;11489;50.834;6.752;2023-11-19T05:25:37;12.50;96.60
22645;DHT22;11489;50.834;6.752;2023-11-19T05:28:02;12.50;96.50
22645;DHT22;11489;50.834;6.752;2023-11-19T05:30:29;12.50;96.50
22645;DHT22;11489;50.834;6.752;2023-11-19T05:32:54;12.40;96.50
22645;DHT22;11489;50.834;6.752;2023-11-19T05:35:20;12.40;96.50
22645;DHT22;11489;50.834;6.752;2023-11-19T05:37:46;12.40;96.50
22645;DHT22;11489;50.834;6.752;2023-11-19T05:40:11;12.40;96.50
22645;DHT22;11489;50.834;6.752;2023-11-19T05:42:41;12.40;96.50
22645;DHT22;11489;50.834;6.752;2023-11-19T05:45:08;12.40;96.60
22645;DHT22;11489;50.834;6.752;2023-11-19T05:47:34;12.30;96.50
22645;DHT22;11489;50.834;6.752;2023-11-19T05:49:59;12.30;96.50
22645;DHT22;11489;50.834;6.752;2023-11-19T05:52:25;12.30;96.80
22645;DHT22;11489;50.834;6.752;2023-11-19T05:54:51;12.30;96.40
22645;DHT22;11489;50.834;6.752;2023-11-19T05:57:19;12.30;96.50
22645;DHT22;11489;50.834;6.752;2023-11-19T05:59:50;12.30;96.50
22645;DHT22;11489;50.834;6.752;2023-11-19T06:02:16;12.30;96.60
22645;DHT22;11489;50.834;6.752;2023-11-19T06:04:42;12.20;96.50
22645;DHT22;11489;50.834;6.752;2023-11-19T06:07:09;12.20;96.50
22645;DHT22;11489;50.834;6.752;2023-11-19T06:09:35;12.20;96.50
22645;DHT22;11489;50.834;6.752;2023-11-19T06:12:01;12.30;96.40
22645;DHT22;11489;50.834;6.752;2023-11-19T06:14:27;12.20;96.40
22645;DHT22;11489;50.834;6.752;2023-11-19T06:16:53;12.20;96.40
22645;DHT22;11489;50.834;6.752;2023-11-19T06:19:19;12.20;96.40
22645;DHT22;11489;50.834;6.752;2023-11-19T06:21:44;12.20;96.40
22645;DHT22;11489;50.834;6.752;2023-11-19T06:24:10;12.20;96.50
22645;DHT22;11489;50.834;6.752;2023-11-19T06:26:35;12.20;96.60
22645;DHT22;11489;50.834;6.752;2023-11-19T06:29:01;12.20;96.70
22645;DHT22;11489;50.834;6.752;2023-11-19T06:31:27;12.20;96.70
22645;DHT22;11489;50.834;6.752;2023-11-19T06:33:53;12.20;96.70
22645;DHT22;11489;50.834;6.752;2023-11-19T06:36:18;12.20;96.80
22645;DHT22;11489;50.834;6.752;2023-11-19T06:38:44;12.20;96.80
22645;DHT22;11489;50.834;6.752;2023-11-19T06:41:10;12.20;96.70
22645;DHT22;11489;50.834;6.752;2023-11-19T06:43:36;12.30;96.70
22645;DHT22;11489;50.834;6.752;2023-11-19T06:46:02;12.20;96.60
22645;DHT22;11489;50.834;6.752;2023-11-19T06:48:33;12.20;96.60
22645;DHT22;11489;50.834;6.752;2023-11-19T06:51:00;12.20;96.50
22645;DHT22;11489;50.834;6.752;2023-11-19T06:53:25;12.20;96.60
22645;DHT22;11489;50.834;6.752;2023-11-19T06:55:54;12.20;96.50
22645;DHT22;11489;50.834;6.752;2023-11-19T06:58:19;12.20;96.50
22645;DHT22;11489;50.834;6.752;2023-11-19T07:00:45;12.20;96.50
22645;DHT22;11489;50.834;6.752;2023-11-19T07:03:12;12.10;96.40
22645;DHT22;11489;50.834;6.752;2023-11-19T07:05:38;12.20;96.40
22645;DHT22;11489;50.834;6.752;2023-11-19T07:08:05;12.10;96.40
22645;DHT22;11489;50.834;6.752;2023-11-19T07:10:32;12.10;96.30
22645;DHT22;11489;50.834;6.752;2023-11-19T07:12:59;12.10;96.30
22645;DHT22;11489;50.834;6.752;2023-11-19T07:15:24;12.10;96.40
22645;DHT22;11489;50.834;6.752;2023-11-19T07:17:51;12.00;96.30
22645;DHT22;11489;50.834;6.752;2023-11-19T07:20:19;12.10;96.30
22645;DHT22;11489;50.834;6.752;2023-11-19T07:22:45;12.00;96.30
22645;DHT22;11489;50.834;6.752;2023-11-19T07:25:14;12.00;96.30
22645;DHT22;11489;50.834;6.752;2023-11-19T07:27:40;12.00;96.30
22645;DHT22;11489;50.834;6.752;2023-11-19T07:30:06;12.00;96.40
22645;DHT22;11489;50.834;6.752;2023-11-19T07:32:35;12.00;96.40
22645;DHT22;11489;50.834;6.752;2023-11-19T07:35:01;12.00;96.50
22645;DHT22;11489;50.834;6.752;2023-11-19T07:37:26;12.00;96.40
22645;DHT22;11489;50.834;6.752;2023-11-19T07:39:52;12.00;96.50
22645;DHT22;11489;50.834;6.752;2023-11-19T07:42:18;12.00;96.60
22645;DHT22;11489;50.834;6.752;2023-11-19T07:44:44;12.00;96.70
22645;DHT22;11489;50.834;6.752;2023-11-19T07:47:09;12.10;96.80
22645;DHT22;11489;50.834;6.752;2023-11-19T07:49:35;12.10;96.90
22645;DHT22;11489;50.834;6.752;2023-11-19T07:52:01;12.10;97.00
22645;DHT22;11489;50.834;6.752;2023-11-19T07:54:28;12.20;97.10
22645;DHT22;11489;50.834;6.752;2023-11-19T07:56:54;12.20;97.10
22645;DHT22;11489;50.834;6.752;2023-11-19T07:59:19;12.20;97.10
22645;DHT22;11489;50.834;6.752;2023-11-19T08:01:45;12.30;97.20
22645;DHT22;11489;50.834;6.752;2023-11-19T08:04:11;12.40;97.20
22645;DHT22;11489;50.834;6.752;2023-11-19T08:06:36;12.40;97.10
22645;DHT22;11489;50.834;6.752;2023-11-19T08:09:02;12.50;96.90
22645;DHT22;11489;50.834;6.752;2023-11-19T08:11:28;12.50;96.80
22645;DHT22;11489;50.834;6.752;2023-11-19T08:13:53;12.50;96.80
22645;DHT22;11489;50.834;6.752;2023-11-19T08:16:19;12.50;96.70
22645;DHT22;11489;50.834;6.752;2023-11-19T08:18:45;12.50;96.70
22645;DHT22;11489;50.834;6.752;2023-11-19T08:21:11;12.50;96.60
22645;DHT22;11489;50.834;6.752;2023-11-19T08:23:36;12.50;96.70
22645;DHT22;11489;50.834;6.752;2023-11-19T08:26:04;12.60;96.60
22645;DHT22;11489;50.834;6.752;2023-11-19T08:28:30;12.60;96.60
22645;DHT22;11489;50.834;6.752;2023-11-19T08:30:56;12.60;96.60
22645;DHT22;11489;50.834;6.752;2023-11-19T08:33:22;12.60;96.50
22645;DHT22;11489;50.834;6.752;2023-11-19T08:35:48;12.70;96.60
22645;DHT22;11489;50.834;6.752;2023-11-19T08:38:14;12.70;96.60
22645;DHT22;11489;50.834;6.752;2023-11-19T08:40:39;12.70;96.60
22645;DHT22;11489;50.834;6.752;2023-11-19T08:43:05;12.70;96.60
22645;DHT22;11489;50.834;6.752;2023-11-19T08:45:31;12.70;96.50
22645;DHT22;11489;50.834;6.752;2023-11-19T08:47:57;12.80;96.60
22645;DHT22;11489;50.834;6.752;2023-11-19T08:50:23;12.80;96.60
22645;DHT22;11489;50.834;6.752;2023-11-19T08:52:49;12.80;96.50
22645;DHT22;11489;50.834;6.752;2023-11-19T08:55:14;12.90;96.60
22645;DHT22;11489;50.834;6.752;2023-11-19T08:57:40;12.90;96.50
22645;DHT22;11489;50.834;6.752;2023-11-19T09:00:06;12.90;96.50
22645;DHT22;11489;50.834;6.752;2023-11-19T09:02:35;13.00;96.40
22645;DHT22;11489;50.834;6.752;2023-11-19T09:05:03;13.00;96.50
22645;DHT22;11489;50.834;6.752;2023-11-19T09:07:29;13.00;96.60
22645;DHT22;11489;50.834;6.752;2023-11-19T09:09:54;13.10;96.70
22645;DHT22;11489;50.834;6.752;2023-11-19T09:12:20;13.10;96.70
22645;DHT22;11489;50.834;6.752;2023-11-19T09:14:46;13.20;96.80
22645;DHT22;11489;50.834;6.752;2023-11-19T09:17:11;13.30;96.80
22645;DHT22;11489;50.834;6.752;2023-11-19T09:19:37;13.30;96.80
22645;DHT22;11489;50.834;6.752;2023-11-19T09:22:03;13.40;97.10
22645;DHT22;11489;50.834;6.752;2023-11-19T09:24:29;13.50;96.80
22645;DHT22;11489;50.834;6.752;2023-11-19T09:26:54;13.50;96.80
22645;DHT22;11489;50.834;6.752;2023-11-19T09:29:22;13.60;96.80
22645;DHT22;11489;50.834;6.752;2023-11-19T09:31:47;13.70;97.10
22645;DHT22;11489;50.834;6.752;2023-11-19T09:34:13;13.80;97.00
22645;DHT22;11489;50.834;6.752;2023-11-19T09:36:38;13.90;97.20
22645;DHT22;11489;50.834;6.752;2023-11-19T09:39:10;14.00;97.20
22645;DHT22;11489;50.834;6.752;2023-11-19T09:41:35;14.10;97.00
22645;DHT22;11489;50.834;6.752;2023-11-19T09:44:01;14.20;96.90
22645;DHT22;11489;50.834;6.752;2023-11-19T09:46:27;14.30;96.60
22645;DHT22;11489;50.834;6.752;2023-11-19T09:48:53;14.30;96.70
22645;DHT22;11489;50.834;6.752;2023-11-19T09:51:20;14.50;96.50
22645;DHT22;11489;50.834;6.752;2023-11-19T09:53:47;14.50;96.60
22645;DHT22;11489;50.834;6.752;2023-11-19T09:56:13;14.60;96.70
22645;DHT22;11489;50.834;6.752;2023-11-19T09:58:39;14.70;96.60
22645;DHT22;11489;50.834;6.752;2023-11-19T10:01:05;14.80;96.60
22645;DHT22;11489;50.834;6.752;2023-11-19T10:03:34;14.90;96.20
22645;DHT22;11489;50.834;6.752;2023-11-19T10:06:07;14.90;96.50
22645;DHT22;11489;50.834;6.752;2023-11-19T10:08:33;15.00;96.30
22645;DHT22;11489;50.834;6.752;2023-11-19T10:10:59;15.10;96.10
22645;DHT22;11489;50.834;6.752;2023-11-19T10:13:28;15.10;95.80
22645;DHT22;11489;50.834;6.752;2023-11-19T10:15:55;15.20;95.70
22645;DHT22;11489;50.834;6.752;2023-11-19T10:18:26;15.20;95.80
22645;DHT22;11489;50.834;6.752;2023-11-19T10:20:52;15.30;95.70
22645;DHT22;11489;50.834;6.752;2023-11-19T10:23:18;15.30;95.90
22645;DHT22;11489;50.834;6.752;2023-11-19T10:25:44;15.30;95.50
22645;DHT22;11489;50.834;6.752;2023-11-19T10:28:09;15.40;95.50
22645;DHT22;11489;50.834;6.752;2023-11-19T10:30:35;15.40;95.60
22645;DHT22;11489;50.834;6.752;2023-11-19T10:33:08;15.50;95.70
22645;DHT22;11489;50.834;6.752;2023-11-19T10:35:51;15.50;94.80
22645;DHT22;11489;50.834;6.752;2023-11-19T10:38:19;15.50;95.40
22645;DHT22;11489;50.834;6.752;2023-11-19T10:40:44;15.50;95.10
22645;DHT22;11489;50.834;6.752;2023-11-19T10:43:10;15.60;95.30
22645;DHT22;11489;50.834;6.752;2023-11-19T10:45:37;15.60;95.60
22645;DHT22;11489;50.834;6.752;2023-11-19T10:48:05;15.70;95.80
22645;DHT22;11489;50.834;6.752;2023-11-19T10:50:37;15.80;96.00
22645;DHT22;11489;50.834;6.752;2023-11-19T10:53:04;15.80;94.90
22645;DHT22;11489;50.834;6.752;2023-11-19T10:55:32;15.80;94.70
22645;DHT22;11489;50.834;6.752;2023-11-19T10:58:00;15.80;94.30
22645;DHT22;11489;50.834;6.752;2023-11-19T11:00:30;15.70;94.00
22645;DHT22;11489;50.834;6.752;2023-11-19T11:03:02;15.60;94.10
22645;DHT22;11489;50.834;6.752;2023-11-19T11:05:34;15.60;94.00
22645;DHT22;11489;50.834;6.752;2023-11-19T11:08:00;15.60;94.70
22645;DHT22;11489;50.834;6.752;2023-11-19T11:10:28;15.60;94.70
22645;DHT22;11489;50.834;6.752;2023-11-19T11:12:57;15.60;94.50
22645;DHT22;11489;50.834;6.752;2023-11-19T11:15:27;15.50;94.40
22645;DHT22;11489;50.834;6.752;2023-11-19T11:17:59;15.50;93.50
22645;DHT22;11489;50.834;6.752;2023-11-19T11:20:26;15.40;93.60
22645;DHT22;11489;50.834;6.752;2023-11-19T11:23:25;15.30;93.70
22645;DHT22;11489;50.834;6.752;2023-11-19T11:29:04;15.20;92.10
22645;DHT22;11489;50.834;6.752;2023-11-19T11:31:54;15.10;92.60
22645;DHT22;11489;50.834;6.752;2023-11-19T11:34:30;15.00;94.30
22645;DHT22;11489;50.834;6.752;2023-11-19T11:37:22;15.00;94.80
22645;DHT22;11489;50.834;6.752;2023-11-19T11:39:51;15.10;93.70
22645;DHT22;11489;50.834;6.752;2023-11-19T11:50:20;15.30;94.00
22645;DHT22;11489;50.834;6.752;2023-11-19T11:55:28;15.40;94.40
22645;DHT22;11489;50.834;6.752;2023-11-19T11:57:55;15.50;95.30
22645;DHT22;11489;50.834;6.752;2023-11-19T12:02:58;15.70;94.60
22645;DHT22;11489;50.834;6.752;2023-11-19T12:05:25;15.80;95.20
22645;DHT22;11489;50.834;6.752;2023-11-19T12:08:01;15.90;95.10
22645;DHT22;11489;50.834;6.752;2023-11-19T12:10:31;15.90;94.00
22645;DHT22;11489;50.834;6.752;2023-11-19T12:12:59;16.00;94.60
22645;DHT22;11489;50.834;6.752;2023-11-19T12:15:25;16.00;94.80
22645;DHT22;11489;50.834;6.752;2023-11-19T12:17:54;16.10;94.60
22645;DHT22;11489;50.834;6.752;2023-11-19T12:20:24;16.10;94.00
22645;DHT22;11489;50.834;6.752;2023-11-19T12:22:50;16.10;93.40
22645;DHT22;11489;50.834;6.752;2023-11-19T12:25:17;16.00;94.00
22645;DHT22;11489;50.834;6.752;2023-11-19T12:27:49;16.00;94.20
22645;DHT22;11489;50.834;6.752;2023-11-19T12:30:22;16.00;94.10
22645;DHT22;11489;50.834;6.752;2023-11-19T12:32:48;16.10;93.80
22645;DHT22;11489;50.834;6.752;2023-11-19T12:35:14;16.10;94.10
22645;DHT22;11489;50.834;6.752;2023-11-19T12:37:46;16.10;93.80
22645;DHT22;11489;50.834;6.752;2023-11-19T12:40:33;16.10;93.80
22645;DHT22;11489;50.834;6.752;2023-11-19T12:42:59;16.10;94.20
22645;DHT22;11489;50.834;6.752;2023-11-19T12:45:34;16.10;94.40
22645;DHT22;11489;50.834;6.752;2023-11-19T12:48:07;16.20;93.20
22645;DHT22;11489;50.834;6.752;2023-11-19T12:50:55;16.20;93.60
22645;DHT22;11489;50.834;6.752;2023-11-19T12:53:23;16.30;92.00
22645;DHT22;11489;50.834;6.752;2023-11-19T12:55:50;16.30;93.70
22645;DHT22;11489;50.834;6.752;2023-11-19T12:58:33;16.30;93.50
22645;DHT22;11489;50.834;6.752;2023-11-19T13:01:07;16.30;92.00
22645;DHT22;11489;50.834;6.752;2023-11-19T13:03:35;16.20;92.80
22645;DHT22;11489;50.834;6.752;2023-11-19T13:08:39;16.10;93.00
22645;DHT22;11489;50.834;6.752;2023-11-19T13:11:06;16.10;92.70
22645;DHT22;11489;50.834;6.752;2023-11-19T13:13:53;16.00;93.10
22645;DHT22;11489;50.834;6.752;2023-11-19T13:16:18;16.00;93.10
22645;DHT22;11489;50.834;6.752;2023-11-19T13:18:44;15.90;93.20
22645;DHT22;11489;50.834;6.752;2023-11-19T13:21:10;15.90;93.30
22645;DHT22;11489;50.834;6.752;2023-11-19T13:23:36;15.90;93.50
22645;DHT22;11489;50.834;6.752;2023-11-19T13:26:01;15.80;93.20
22645;DHT22;11489;50.834;6.752;2023-11-19T13:28:27;15.80;92.90
22645;DHT22;11489;50.834;6.752;2023-11-19T13:30:53;15.80;92.70
22645;DHT22;11489;50.834;6.752;2023-11-19T13:33:19;15.70;92.80
22645;DHT22;11489;50.834;6.752;2023-11-19T13:35:44;15.60;92.80
22645;DHT22;11489;50.834;6.752;2023-11-19T13:38:10;15.60;92.90
22645;DHT22;11489;50.834;6.752;2023-11-19T13:40:35;15.50;92.70
22645;DHT22;11489;50.834;6.752;2023-11-19T13:43:01;15.40;92.50
22645;DHT22;11489;50.834;6.752;2023-11-19T13:45:27;15.40;92.30
22645;DHT22;11489;50.834;6.752;2023-11-19T13:47:53;15.30;92.50
22645;DHT22;11489;50.834;6.752;2023-11-19T13:50:18;15.20;92.30
22645;DHT22;11489;50.834;6.752;2023-11-19T13:52:45;15.10;92.40
22645;DHT22;11489;50.834;6.752;2023-11-19T13:55:12;15.00;92.50
22645;DHT22;11489;50.834;6.752;2023-11-19T13:57:39;15.00;92.60
22645;DHT22;11489;50.834;6.752;2023-11-19T14:00:07;14.90;92.70
22645;DHT22;11489;50.834;6.752;2023-11-19T14:02:36;14.90;92.90
22645;DHT22;11489;50.834;6.752;2023-11-19T14:05:02;14.90;93.00
22645;DHT22;11489;50.834;6.752;2023-11-19T14:07:28;14.90;93.10
22645;DHT22;11489;50.834;6.752;2023-11-19T14:09:54;14.90;93.20
22645;DHT22;11489;50.834;6.752;2023-11-19T14:12:19;14.90;93.20
22645;DHT22;11489;50.834;6.752;2023-11-19T14:14:45;15.00;93.30
22645;DHT22;11489;50.834;6.752;2023-11-19T14:17:11;15.00;93.30
22645;DHT22;11489;50.834;6.752;2023-11-19T14:19:37;15.00;93.20
22645;DHT22;11489;50.834;6.752;2023-11-19T14:22:05;15.00;93.00
22645;DHT22;11489;50.834;6.752;2023-11-19T14:24:31;15.00;92.80
22645;DHT22;11489;50.834;6.752;2023-11-19T14:26:56;15.00;92.70
22645;DHT22;11489;50.834;6.752;2023-11-19T14:29:24;15.00;92.60
22645;DHT22;11489;50.834;6.752;2023-11-19T14:31:52;15.00;92.70
22645;DHT22;11489;50.834;6.752;2023-11-19T14:34:19;15.00;93.00
22645;DHT22;11489;50.834;6.752;2023-11-19T14:36:45;15.00;92.60
22645;DHT22;11489;50.834;6.752;2023-11-19T14:39:11;14.90;92.30
22645;DHT22;11489;50.834;6.752;2023-11-19T14:41:37;14.90;92.10
22645;DHT22;11489;50.834;6.752;2023-11-19T14:44:02;14.80;92.20
22645;DHT22;11489;50.834;6.752;2023-11-19T14:46:29;14.80;92.20
22645;DHT22;11489;50.834;6.752;2023-11-19T14:49:02;14.70;92.10
22645;DHT22;11489;50.834;6.752;2023-11-19T14:51:29;14.60;92.10
22645;DHT22;11489;50.834;6.752;2023-11-19T14:53:55;14.60;92.00
22645;DHT22;11489;50.834;6.752;2023-11-19T14:56:21;14.50;92.00
22645;DHT22;11489;50.834;6.752;2023-11-19T14:58:47;14.40;92.00
22645;DHT22;11489;50.834;6.752;2023-11-19T15:01:13;14.30;92.00
22645;DHT22;11489;50.834;6.752;2023-11-19T15:03:39;14.20;91.80
22645;DHT22;11489;50.834;6.752;2023-11-19T15:06:05;14.00;91.70
22645;DHT22;11489;50.834;6.752;2023-11-19T15:08:32;13.90;91.70
22645;DHT22;11489;50.834;6.752;2023-11-19T15:10:58;13.80;91.70
22645;DHT22;11489;50.834;6.752;2023-11-19T15:13:25;13.70;91.90
22645;DHT22;11489;50.834;6.752;2023-11-19T15:15:50;13.60;91.90
22645;DHT22;11489;50.834;6.752;2023-11-19T15:18:18;13.50;92.00
22645;DHT22;11489;50.834;6.752;2023-11-19T15:20:44;13.50;92.20
22645;DHT22;11489;50.834;6.752;2023-11-19T15:23:15;13.40;92.30
22645;DHT22;11489;50.834;6.752;2023-11-19T15:25:42;13.30;92.30
22645;DHT22;11489;50.834;6.752;2023-11-19T15:28:07;13.20;92.40
22645;DHT22;11489;50.834;6.752;2023-11-19T15:30:33;13.20;92.60
22645;DHT22;11489;50.834;6.752;2023-11-19T15:32:59;13.10;92.60
22645;DHT22;11489;50.834;6.752;2023-11-19T15:35:24;13.10;92.70
22645;DHT22;11489;50.834;6.752;2023-11-19T15:37:50;13.10;92.80
22645;DHT22;11489;50.834;6.752;2023-11-19T15:40:16;13.00;92.70
22645;DHT22;11489;50.834;6.752;2023-11-19T15:42:42;13.00;92.70
22645;DHT22;11489;50.834;6.752;2023-11-19T15:45:12;13.00;92.70
22645;DHT22;11489;50.834;6.752;2023-11-19T15:47:38;13.00;92.60